sensor_id;sensor_type;location;lat;lon;timestamp;P1;durP1;ratioP1;P2;durP2;ratioP2
2201;SDS011;1107;48.654;9.250;2023-02-11T09:05:53;87.07;;;43.17;;
2201;SDS011;1107;48.654;9.250;2023-02-11T09:08:22;67.10;;;37.00;;
2201;SDS011;1107;48.654;9.250;2023-02-11T09:10:49;48.28;;;27.42;;
2201;SDS011;1107;48.654;9.250;2023-02-11T09:13:16;60.93;;;36.40;;
2201;SDS011;1107;48.654;9.250;2023-02-11T09:15:43;53.83;;;31.93;;
2201;SDS011;1107;48.654;9.250;2023-02-11T09:18:11;93.27;;;48.07;;
2201;SDS011;1107;48.654;9.250;2023-02-11T09:20:37;38.67;;;23.83;;
2201;SDS011;1107;48.654;9.250;2023-02-11T09:23:04;50.33;;;28.50;;
2201;SDS011;1107;48.654;9.250;2023-02-11T09:25:33;51.67;;;29.20;;
2201;SDS011;1107;48.654;9.250;2023-02-11T09:28:00;52.00;;;29.70;;
2201;SDS011;1107;48.654;9.250;2023-02-11T09:30:27;48.73;;;29.33;;
2201;SDS011;1107;48.654;9.250;2023-02-11T09:32:54;39.60;;;26.70;;
2201;SDS011;1107;48.654;9.250;2023-02-11T09:35:21;47.57;;;31.43;;
2201;SDS011;1107;48.654;9.250;2023-02-11T09:37:48;37.97;;;21.63;;
2201;SDS011;1107;48.654;9.250;2023-02-11T09:40:16;43.83;;;26.87;;
2201;SDS011;1107;48.654;9.250;2023-02-11T09:42:48;41.63;;;23.93;;
2201;SDS011;1107;48.654;9.250;2023-02-11T09:45:19;33.67;;;22.20;;
2201;SDS011;1107;48.654;9.250;2023-02-11T09:47:50;36.63;;;24.73;;
2201;SDS011;1107;48.654;9.250;2023-02-11T09:50:25;40.67;;;22.70;;
2201;SDS011;1107;48.654;9.250;2023-02-11T09:52:56;37.53;;;22.83;;
2201;SDS011;1107;48.654;9.250;2023-02-11T09:55:28;38.00;;;23.73;;
2201;SDS011;1107;48.654;9.250;2023-02-11T09:58:04;40.87;;;20.60;;
2201;SDS011;1107;48.654;9.250;2023-02-11T10:00:38;30.83;;;20.27;;
2201;SDS011;1107;48.654;9.250;2023-02-11T10:03:14;33.07;;;21.60;;
2201;SDS011;1107;48.654;9.250;2023-02-11T10:06:00;31.40;;;20.73;;
2201;SDS011;1107;48.654;9.250;2023-02-11T10:08:40;34.07;;;18.77;;
2201;SDS011;1107;48.654;9.250;2023-02-11T10:11:15;26.73;;;18.60;;
2201;SDS011;1107;48.654;9.250;2023-02-11T10:13:53;25.23;;;17.63;;
2201;SDS011;1107;48.654;9.250;2023-02-11T10:16:36;32.27;;;18.07;;
2201;SDS011;1107;48.654;9.250;2023-02-11T10:19:20;26.10;;;18.90;;
2201;SDS011;1107;48.654;9.250;2023-02-11T10:22:03;24.63;;;17.80;;
2201;SDS011;1107;48.654;9.250;2023-02-11T10:24:35;23.70;;;17.97;;
2201;SDS011;1107;48.654;9.250;2023-02-11T10:27:05;23.37;;;18.13;;
2201;SDS011;1107;48.654;9.250;2023-02-11T10:29:42;27.63;;;17.23;;
2201;SDS011;1107;48.654;9.250;2023-02-11T10:32:14;24.50;;;17.63;;
2201;SDS011;1107;48.654;9.250;2023-02-11T10:34:55;22.20;;;17.57;;
2201;SDS011;1107;48.654;9.250;2023-02-11T10:37:26;20.93;;;16.70;;
2201;SDS011;1107;48.654;9.250;2023-02-11T10:39:53;20.87;;;17.30;;
2201;SDS011;1107;48.654;9.250;2023-02-11T10:42:20;19.30;;;16.67;;
2201;SDS011;1107;48.654;9.250;2023-02-11T10:44:54;24.90;;;17.67;;
2201;SDS011;1107;48.654;9.250;2023-02-11T10:47:26;24.33;;;16.57;;
2201;SDS011;1107;48.654;9.250;2023-02-11T10:49:57;20.63;;;17.70;;
2201;SDS011;1107;48.654;9.250;2023-02-11T10:52:27;34.23;;;25.10;;
2201;SDS011;1107;48.654;9.250;2023-02-11T10:54:56;19.43;;;17.33;;
2201;SDS011;1107;48.654;9.250;2023-02-11T10:57:26;26.10;;;21.30;;
2201;SDS011;1107;48.654;9.250;2023-02-11T10:59:59;19.97;;;18.00;;
2201;SDS011;1107;48.654;9.250;2023-02-11T11:02:35;17.00;;;15.30;;
2201;SDS011;1107;48.654;9.250;2023-02-11T11:05:14;16.00;;;14.43;;
2201;SDS011;1107;48.654;9.250;2023-02-11T11:07:50;16.67;;;14.97;;
2201;SDS011;1107;48.654;9.250;2023-02-11T11:10:27;16.90;;;15.17;;
2201;SDS011;1107;48.654;9.250;2023-02-11T11:12:56;16.50;;;15.00;;
2201;SDS011;1107;48.654;9.250;2023-02-11T11:15:25;15.30;;;14.00;;
2201;SDS011;1107;48.654;9.250;2023-02-11T11:18:08;16.63;;;15.00;;
2201;SDS011;1107;48.654;9.250;2023-02-11T11:20:38;15.83;;;14.00;;
2201;SDS011;1107;48.654;9.250;2023-02-11T11:23:09;15.40;;;14.07;;
2201;SDS011;1107;48.654;9.250;2023-02-11T11:25:42;17.57;;;14.17;;
2201;SDS011;1107;48.654;9.250;2023-02-11T11:28:21;17.07;;;14.07;;
2201;SDS011;1107;48.654;9.250;2023-02-11T11:30:52;16.07;;;14.47;;
2201;SDS011;1107;48.654;9.250;2023-02-11T11:33:21;16.00;;;14.40;;
2201;SDS011;1107;48.654;9.250;2023-02-11T11:35:54;16.60;;;15.10;;
2201;SDS011;1107;48.654;9.250;2023-02-11T11:38:25;15.43;;;14.00;;
2201;SDS011;1107;48.654;9.250;2023-02-11T11:41:12;16.53;;;14.83;;
2201;SDS011;1107;48.654;9.250;2023-02-11T11:43:49;16.33;;;14.77;;
2201;SDS011;1107;48.654;9.250;2023-02-11T11:46:26;15.13;;;13.67;;
2201;SDS011;1107;48.654;9.250;2023-02-11T11:48:55;16.00;;;14.37;;
2201;SDS011;1107;48.654;9.250;2023-02-11T11:51:28;15.27;;;13.73;;
2201;SDS011;1107;48.654;9.250;2023-02-11T11:53:57;14.63;;;13.23;;
2201;SDS011;1107;48.654;9.250;2023-02-11T11:56:29;13.10;;;12.10;;
2201;SDS011;1107;48.654;9.250;2023-02-11T11:58:59;15.60;;;12.97;;
2201;SDS011;1107;48.654;9.250;2023-02-11T12:01:33;16.50;;;13.90;;
2201;SDS011;1107;48.654;9.250;2023-02-11T12:04:14;15.33;;;13.93;;
2201;SDS011;1107;48.654;9.250;2023-02-11T12:06:59;14.10;;;12.60;;
2201;SDS011;1107;48.654;9.250;2023-02-11T12:09:37;14.73;;;12.00;;
2201;SDS011;1107;48.654;9.250;2023-02-11T12:12:16;14.53;;;13.03;;
2201;SDS011;1107;48.654;9.250;2023-02-11T12:15:05;16.00;;;12.67;;
2201;SDS011;1107;48.654;9.250;2023-02-11T12:17:54;12.63;;;11.50;;
2201;SDS011;1107;48.654;9.250;2023-02-11T12:20:31;13.23;;;12.13;;
2201;SDS011;1107;48.654;9.250;2023-02-11T12:23:15;14.30;;;12.83;;
2201;SDS011;1107;48.654;9.250;2023-02-11T12:25:58;15.97;;;14.37;;
2201;SDS011;1107;48.654;9.250;2023-02-11T12:28:35;15.90;;;14.20;;
2201;SDS011;1107;48.654;9.250;2023-02-11T12:31:12;15.07;;;13.57;;
2201;SDS011;1107;48.654;9.250;2023-02-11T12:33:53;14.20;;;11.87;;
2201;SDS011;1107;48.654;9.250;2023-02-11T12:36:46;16.17;;;13.03;;
2201;SDS011;1107;48.654;9.250;2023-02-11T12:39:31;15.60;;;13.63;;
2201;SDS011;1107;48.654;9.250;2023-02-11T12:42:08;13.97;;;12.50;;
2201;SDS011;1107;48.654;9.250;2023-02-11T12:45:15;13.73;;;12.23;;
2201;SDS011;1107;48.654;9.250;2023-02-11T12:47:54;17.60;;;13.90;;
2201;SDS011;1107;48.654;9.250;2023-02-11T12:50:37;15.70;;;13.90;;
2201;SDS011;1107;48.654;9.250;2023-02-11T12:53:24;12.90;;;11.60;;
2201;SDS011;1107;48.654;9.250;2023-02-11T12:56:04;20.37;;;14.23;;
2201;SDS011;1107;48.654;9.250;2023-02-11T12:58:35;20.27;;;14.83;;
2201;SDS011;1107;48.654;9.250;2023-02-11T13:01:06;22.70;;;15.40;;
2201;SDS011;1107;48.654;9.250;2023-02-11T13:03:41;19.97;;;13.33;;
2201;SDS011;1107;48.654;9.250;2023-02-11T13:06:13;14.30;;;12.73;;
2201;SDS011;1107;48.654;9.250;2023-02-11T13:08:44;14.97;;;12.47;;
2201;SDS011;1107;48.654;9.250;2023-02-11T13:11:15;15.17;;;12.30;;
2201;SDS011;1107;48.654;9.250;2023-02-11T13:13:46;14.50;;;11.70;;
2201;SDS011;1107;48.654;9.250;2023-02-11T13:16:18;20.80;;;13.10;;
2201;SDS011;1107;48.654;9.250;2023-02-11T13:18:56;20.03;;;14.00;;
2201;SDS011;1107;48.654;9.250;2023-02-11T13:21:32;20.70;;;13.40;;
2201;SDS011;1107;48.654;9.250;2023-02-11T13:24:18;19.73;;;13.03;;
2201;SDS011;1107;48.654;9.250;2023-02-11T13:26:52;15.77;;;14.00;;
2201;SDS011;1107;48.654;9.250;2023-02-11T13:29:31;16.00;;;14.30;;
2201;SDS011;1107;48.654;9.250;2023-02-11T13:32:06;15.77;;;14.17;;
2201;SDS011;1107;48.654;9.250;2023-02-11T13:34:54;20.43;;;15.40;;
2201;SDS011;1107;48.654;9.250;2023-02-11T13:37:25;17.73;;;14.63;;
2201;SDS011;1107;48.654;9.250;2023-02-11T13:39:58;19.10;;;14.53;;
2201;SDS011;1107;48.654;9.250;2023-02-11T13:42:26;18.83;;;15.17;;
2201;SDS011;1107;48.654;9.250;2023-02-11T13:44:55;18.77;;;14.80;;
2201;SDS011;1107;48.654;9.250;2023-02-11T13:47:26;18.80;;;14.13;;
2201;SDS011;1107;48.654;9.250;2023-02-11T13:49:56;15.87;;;14.30;;
2201;SDS011;1107;48.654;9.250;2023-02-11T13:52:27;16.43;;;14.73;;
2201;SDS011;1107;48.654;9.250;2023-02-11T13:54:58;15.37;;;13.77;;
2201;SDS011;1107;48.654;9.250;2023-02-11T13:57:35;16.37;;;14.07;;
2201;SDS011;1107;48.654;9.250;2023-02-11T14:06:17;13.30;;;12.00;;
2201;SDS011;1107;48.654;9.250;2023-02-11T14:12:19;12.17;;;10.77;;
2201;SDS011;1107;48.654;9.250;2023-02-11T14:14:57;12.60;;;11.40;;
2201;SDS011;1107;48.654;9.250;2023-02-11T14:17:29;14.80;;;10.93;;
2201;SDS011;1107;48.654;9.250;2023-02-11T14:19:57;11.90;;;10.80;;
2201;SDS011;1107;48.654;9.250;2023-02-11T14:22:26;12.77;;;11.13;;
2201;SDS011;1107;48.654;9.250;2023-02-11T14:24:56;11.50;;;10.37;;
2201;SDS011;1107;48.654;9.250;2023-02-11T14:27:30;11.47;;;10.37;;
2201;SDS011;1107;48.654;9.250;2023-02-11T14:33:18;9.87;;;9.23;;
2201;SDS011;1107;48.654;9.250;2023-02-11T14:36:11;10.23;;;9.33;;
2201;SDS011;1107;48.654;9.250;2023-02-11T14:38:51;9.67;;;8.87;;
2201;SDS011;1107;48.654;9.250;2023-02-11T14:41:26;14.83;;;9.40;;
2201;SDS011;1107;48.654;9.250;2023-02-11T14:43:57;13.00;;;10.10;;
2201;SDS011;1107;48.654;9.250;2023-02-11T14:46:27;10.20;;;9.10;;
2201;SDS011;1107;48.654;9.250;2023-02-11T14:48:57;10.97;;;9.33;;
2201;SDS011;1107;48.654;9.250;2023-02-11T14:51:26;11.30;;;9.63;;
2201;SDS011;1107;48.654;9.250;2023-02-11T14:53:57;9.70;;;8.90;;
2201;SDS011;1107;48.654;9.250;2023-02-11T14:56:27;11.00;;;9.73;;
2201;SDS011;1107;48.654;9.250;2023-02-11T14:58:59;10.07;;;9.07;;
2201;SDS011;1107;48.654;9.250;2023-02-11T15:01:28;10.07;;;9.10;;
2201;SDS011;1107;48.654;9.250;2023-02-11T15:03:58;12.47;;;11.20;;
2201;SDS011;1107;48.654;9.250;2023-02-11T15:06:27;18.53;;;11.27;;
2201;SDS011;1107;48.654;9.250;2023-02-11T15:08:57;14.30;;;10.80;;
2201;SDS011;1107;48.654;9.250;2023-02-11T15:11:27;12.23;;;10.53;;
2201;SDS011;1107;48.654;9.250;2023-02-11T15:13:57;16.10;;;12.20;;
2201;SDS011;1107;48.654;9.250;2023-02-11T15:16:31;13.13;;;11.47;;
2201;SDS011;1107;48.654;9.250;2023-02-11T15:19:00;12.93;;;11.63;;
2201;SDS011;1107;48.654;9.250;2023-02-11T15:21:29;16.23;;;11.83;;
2201;SDS011;1107;48.654;9.250;2023-02-11T15:24:00;13.17;;;11.80;;
2201;SDS011;1107;48.654;9.250;2023-02-11T15:26:30;13.03;;;11.70;;
2201;SDS011;1107;48.654;9.250;2023-02-11T15:28:57;14.10;;;12.43;;
2201;SDS011;1107;48.654;9.250;2023-02-11T15:31:26;14.43;;;12.20;;
2201;SDS011;1107;48.654;9.250;2023-02-11T15:33:53;17.40;;;13.03;;
2201;SDS011;1107;48.654;9.250;2023-02-11T15:36:22;16.90;;;13.20;;
2201;SDS011;1107;48.654;9.250;2023-02-11T15:39:15;24.53;;;12.83;;
2201;SDS011;1107;48.654;9.250;2023-02-11T15:41:44;15.67;;;13.00;;
2201;SDS011;1107;48.654;9.250;2023-02-11T15:44:27;19.37;;;13.30;;
2201;SDS011;1107;48.654;9.250;2023-02-11T15:46:57;19.70;;;13.83;;
2201;SDS011;1107;48.654;9.250;2023-02-11T15:49:25;16.47;;;12.43;;
2201;SDS011;1107;48.654;9.250;2023-02-11T15:51:52;19.83;;;13.23;;
2201;SDS011;1107;48.654;9.250;2023-02-11T15:54:22;27.67;;;13.50;;
2201;SDS011;1107;48.654;9.250;2023-02-11T15:56:53;20.50;;;13.37;;
2201;SDS011;1107;48.654;9.250;2023-02-11T15:59:27;19.00;;;13.33;;
2201;SDS011;1107;48.654;9.250;2023-02-11T16:02:03;27.77;;;14.27;;
2201;SDS011;1107;48.654;9.250;2023-02-11T16:04:46;24.47;;;13.90;;
2201;SDS011;1107;48.654;9.250;2023-02-11T16:10:03;20.83;;;13.73;;
2201;SDS011;1107;48.654;9.250;2023-02-11T16:12:48;19.70;;;13.93;;
2201;SDS011;1107;48.654;9.250;2023-02-11T16:18:18;18.47;;;12.80;;
2201;SDS011;1107;48.654;9.250;2023-02-11T16:20:53;19.60;;;13.33;;
2201;SDS011;1107;48.654;9.250;2023-02-11T16:23:21;20.37;;;13.53;;
2201;SDS011;1107;48.654;9.250;2023-02-11T16:25:53;24.90;;;12.50;;
2201;SDS011;1107;48.654;9.250;2023-02-11T16:35:47;17.63;;;13.60;;
2201;SDS011;1107;48.654;9.250;2023-02-11T16:40:41;18.93;;;12.90;;
2201;SDS011;1107;48.654;9.250;2023-02-11T16:43:10;21.27;;;14.07;;
2201;SDS011;1107;48.654;9.250;2023-02-11T16:45:37;24.90;;;15.83;;
2201;SDS011;1107;48.654;9.250;2023-02-11T17:25:19;31.92;;;15.40;;
2201;SDS011;1107;48.654;9.250;2023-02-11T17:27:47;21.20;;;12.70;;
2201;SDS011;1107;48.654;9.250;2023-02-11T18:38:58;30.80;;;17.40;;
2201;SDS011;1107;48.654;9.250;2023-02-11T22:34:56;50.88;;;25.58;;
2201;SDS011;1107;48.654;9.250;2023-02-11T22:37:23;51.22;;;26.63;;
2201;SDS011;1107;48.654;9.250;2023-02-11T22:39:49;40.90;;;22.58;;
2201;SDS011;1107;48.654;9.250;2023-02-11T22:42:16;44.08;;;23.92;;
